createdAt,value
2016-11-01T00:00:17.316Z,974.94
2016-11-01T00:01:17.278Z,974.88
2016-11-01T00:02:17.237Z,974.91
2016-11-01T00:03:17.203Z,974.92
2016-11-01T00:04:17.164Z,974.93
2016-11-01T00:05:17.125Z,974.92
2016-11-01T00:06:17.088Z,974.95
2016-11-01T00:07:17.051Z,974.92
2016-11-01T00:08:17.012Z,974.92
2016-11-01T00:09:16.975Z,974.91
2016-11-01T00:10:16.939Z,974.94
2016-11-01T00:11:16.898Z,974.95
2016-11-01T00:12:16.860Z,974.94
2016-11-01T00:13:16.823Z,974.95
2016-11-01T00:14:16.785Z,974.94
2016-11-01T00:15:16.748Z,974.92
2016-11-01T00:16:16.709Z,974.93
2016-11-01T00:17:16.671Z,974.88
2016-11-01T00:18:16.635Z,974.88
2016-11-01T00:19:16.596Z,974.86
2016-11-01T00:20:16.558Z,974.89
2016-11-01T00:21:16.519Z,974.88
2016-11-01T00:22:16.481Z,974.89
2016-11-01T00:23:16.446Z,974.89
2016-11-01T00:24:16.407Z,974.94
2016-11-01T00:25:16.369Z,974.88
2016-11-01T00:26:16.329Z,974.86
2016-11-01T00:27:16.291Z,974.89
2016-11-01T00:28:16.257Z,974.9
2016-11-01T00:29:16.217Z,974.86
2016-11-01T00:30:16.177Z,974.87
2016-11-01T00:31:16.140Z,974.89
2016-11-01T00:32:16.101Z,974.86
2016-11-01T00:33:16.063Z,974.84
2016-11-01T00:34:16.025Z,974.8
2016-11-01T00:35:15.987Z,974.85
2016-11-01T00:36:15.950Z,974.81
2016-11-01T00:37:15.911Z,974.85
2016-11-01T00:38:15.874Z,974.86
2016-11-01T00:39:15.836Z,974.82
2016-11-01T00:40:15.798Z,974.81
2016-11-01T00:41:15.763Z,974.78
2016-11-01T00:42:15.723Z,974.79
2016-11-01T00:43:15.685Z,974.78
2016-11-01T00:44:15.646Z,974.81
2016-11-01T00:45:15.608Z,974.79
2016-11-01T00:46:15.571Z,974.8
2016-11-01T00:47:15.533Z,974.77
2016-11-01T00:48:15.494Z,974.71
2016-11-01T00:49:15.456Z,974.74
2016-11-01T00:50:15.422Z,974.71
2016-11-01T00:51:15.380Z,974.71
2016-11-01T00:52:15.344Z,974.68
2016-11-01T00:53:15.309Z,974.73
2016-11-01T00:54:15.267Z,974.7
2016-11-01T00:55:15.235Z,974.7
2016-11-01T00:56:15.191Z,974.63
2016-11-01T00:57:15.155Z,974.71
2016-11-01T00:58:15.117Z,974.67
2016-11-01T00:59:15.077Z,974.66
2016-11-01T01:00:15.040Z,974.65
2016-11-01T01:01:15.002Z,974.68
2016-11-01T01:02:14.963Z,974.68
2016-11-01T01:03:14.925Z,974.67
2016-11-01T01:04:14.888Z,974.72
2016-11-01T01:05:14.850Z,974.66
2016-11-01T01:06:14.811Z,974.7
2016-11-01T01:07:14.773Z,974.7
2016-11-01T01:08:14.737Z,974.66
2016-11-01T01:09:14.698Z,974.7
2016-11-01T01:10:14.659Z,974.69
2016-11-01T01:11:14.621Z,974.67
2016-11-01T01:12:14.584Z,974.7
2016-11-01T01:13:14.545Z,974.67
2016-11-01T01:14:14.508Z,974.69
2016-11-01T01:15:14.470Z,974.63
2016-11-01T01:16:14.432Z,974.64
2016-11-01T01:17:14.392Z,974.59
2016-11-01T01:18:14.356Z,974.61
2016-11-01T01:19:14.319Z,974.61
2016-11-01T01:20:14.280Z,974.6
2016-11-01T01:21:14.241Z,974.62
2016-11-01T01:22:14.203Z,974.58
2016-11-01T01:23:14.166Z,974.53
2016-11-01T01:24:14.126Z,974.61
2016-11-01T01:25:14.090Z,974.58
2016-11-01T01:26:14.050Z,974.59
2016-11-01T01:27:14.014Z,974.57
2016-11-01T01:28:13.976Z,974.53
2016-11-01T01:29:13.938Z,974.55
2016-11-01T01:30:13.899Z,974.53
2016-11-01T01:31:13.862Z,974.52
2016-11-01T01:32:13.823Z,974.56
2016-11-01T01:33:13.787Z,974.54
2016-11-01T01:34:13.749Z,974.5
2016-11-01T01:35:13.710Z,974.49
2016-11-01T01:36:13.671Z,974.47
2016-11-01T01:37:13.634Z,974.48
2016-11-01T01:38:13.596Z,974.45
2016-11-01T01:39:13.559Z,974.45
2016-11-01T01:40:13.519Z,974.45
2016-11-01T01:41:13.483Z,974.44
2016-11-01T01:42:13.444Z,974.44
2016-11-01T01:43:13.406Z,974.44
2016-11-01T01:44:13.370Z,974.45
2016-11-01T01:45:13.329Z,974.37
2016-11-01T01:46:13.295Z,974.39
2016-11-01T01:47:13.254Z,974.41
2016-11-01T01:48:13.216Z,974.38
2016-11-01T01:49:13.179Z,974.4
2016-11-01T01:50:13.140Z,974.34
2016-11-01T01:51:13.102Z,974.36
2016-11-01T01:52:13.064Z,974.37
2016-11-01T01:53:13.027Z,974.33
2016-11-01T01:54:12.989Z,974.34
2016-11-01T01:55:12.950Z,974.33
2016-11-01T01:56:12.913Z,974.29
2016-11-01T01:57:12.873Z,974.32
2016-11-01T01:58:12.836Z,974.26
2016-11-01T01:59:12.800Z,974.23
2016-11-01T02:00:12.765Z,974.23
2016-11-01T02:01:12.721Z,974.17
2016-11-01T02:02:12.690Z,974.2
2016-11-01T02:03:12.646Z,974.2
2016-11-01T02:04:12.609Z,974.25
2016-11-01T02:05:12.570Z,974.21
2016-11-01T02:06:12.533Z,974.17
2016-11-01T02:07:12.494Z,974.15
2016-11-01T02:08:12.456Z,974.13
2016-11-01T02:09:12.423Z,974.13
2016-11-01T02:10:12.381Z,974.1
2016-11-01T02:11:12.343Z,974.05
2016-11-01T02:12:12.306Z,974.08
2016-11-01T02:13:12.266Z,974.06
2016-11-01T02:14:12.229Z,974.05
2016-11-01T02:15:12.191Z,974.03
2016-11-01T02:16:12.150Z,974.03
2016-11-01T02:17:12.114Z,974.06
2016-11-01T02:18:12.077Z,974.06
2016-11-01T02:19:12.038Z,974.02
2016-11-01T02:20:11.999Z,974.03
2016-11-01T02:21:11.961Z,974.01
2016-11-01T02:22:11.924Z,974.02
2016-11-01T02:23:11.885Z,974
2016-11-01T02:24:11.850Z,974.03
2016-11-01T02:25:11.810Z,973.99
2016-11-01T02:26:11.773Z,973.97
2016-11-01T02:27:11.734Z,973.93
2016-11-01T02:28:11.696Z,973.94
2016-11-01T02:29:11.660Z,973.92
2016-11-01T02:30:11.619Z,973.9
2016-11-01T02:31:11.583Z,973.89
2016-11-01T02:32:11.544Z,973.88
2016-11-01T02:33:11.508Z,973.89
2016-11-01T02:34:11.471Z,973.87
2016-11-01T02:35:11.431Z,973.83
2016-11-01T02:36:11.394Z,973.85
2016-11-01T02:37:11.354Z,973.86
2016-11-01T02:38:11.316Z,973.81
2016-11-01T02:39:11.277Z,973.87
2016-11-01T02:40:11.242Z,973.84
2016-11-01T02:41:11.201Z,973.84
2016-11-01T02:42:11.164Z,973.79
2016-11-01T02:43:11.126Z,973.83
2016-11-01T02:44:11.088Z,973.81
2016-11-01T02:45:11.051Z,973.78
2016-11-01T02:46:11.012Z,973.83
2016-11-01T02:47:10.977Z,973.8
2016-11-01T02:48:10.935Z,973.81
2016-11-01T02:49:10.898Z,973.83
2016-11-01T02:50:10.859Z,973.79
2016-11-01T02:51:10.823Z,973.79
2016-11-01T02:52:10.785Z,973.81
2016-11-01T02:53:10.745Z,973.85
2016-11-01T02:54:10.708Z,973.82
2016-11-01T02:55:10.671Z,973.81
2016-11-01T02:56:10.631Z,973.79
2016-11-01T02:57:10.593Z,973.77
2016-11-01T02:58:10.555Z,973.78
2016-11-01T02:59:10.516Z,973.79
2016-11-01T03:00:10.479Z,973.79
2016-11-01T03:01:10.441Z,973.8
2016-11-01T03:02:10.403Z,973.81
2016-11-01T03:03:10.363Z,973.78
2016-11-01T03:04:10.327Z,973.79
2016-11-01T03:05:10.289Z,973.79
2016-11-01T03:06:10.251Z,973.75
2016-11-01T03:07:10.212Z,973.78
2016-11-01T03:08:10.174Z,973.73
2016-11-01T03:09:10.137Z,973.73
2016-11-01T03:10:10.097Z,973.75
2016-11-01T03:11:10.060Z,973.76
2016-11-01T03:12:10.022Z,973.7
2016-11-01T03:13:09.984Z,973.67
2016-11-01T03:14:09.947Z,973.71
2016-11-01T03:15:09.909Z,973.66
2016-11-01T03:16:09.869Z,973.66
2016-11-01T03:17:09.831Z,973.64
2016-11-01T03:18:09.793Z,973.61
2016-11-01T03:19:09.755Z,973.63
2016-11-01T03:20:09.718Z,973.65
2016-11-01T03:21:09.679Z,973.68
2016-11-01T03:22:09.641Z,973.67
2016-11-01T03:23:09.603Z,973.65
2016-11-01T03:24:09.565Z,973.68
2016-11-01T03:25:09.527Z,973.66
2016-11-01T03:26:09.488Z,973.65
2016-11-01T03:27:09.451Z,973.63
2016-11-01T03:28:09.412Z,973.6
2016-11-01T03:29:09.374Z,973.6
2016-11-01T03:30:09.335Z,973.62
2016-11-01T03:31:09.297Z,973.59
2016-11-01T03:32:09.258Z,973.58
2016-11-01T03:33:09.221Z,973.59
2016-11-01T03:34:09.183Z,973.58
2016-11-01T03:35:09.145Z,973.59
2016-11-01T03:36:09.106Z,973.6
2016-11-01T03:37:09.068Z,973.57
2016-11-01T03:38:09.033Z,973.56
2016-11-01T03:39:08.995Z,973.57
2016-11-01T03:40:08.953Z,973.55
2016-11-01T03:41:08.915Z,973.57
2016-11-01T03:42:08.878Z,973.58
2016-11-01T03:43:08.838Z,973.59
2016-11-01T03:44:08.801Z,973.57
2016-11-01T03:45:08.764Z,973.62
2016-11-01T03:46:08.724Z,973.61
2016-11-01T03:47:08.686Z,973.59
2016-11-01T03:48:08.647Z,973.57
2016-11-01T03:49:08.609Z,973.58
2016-11-01T03:50:08.572Z,973.55
2016-11-01T03:51:08.532Z,973.56
2016-11-01T03:52:08.495Z,973.54
2016-11-01T03:53:08.457Z,973.5
2016-11-01T03:54:08.419Z,973.54
2016-11-01T03:55:08.383Z,973.51
2016-11-01T03:56:08.342Z,973.51
2016-11-01T03:57:08.304Z,973.53
2016-11-01T03:58:08.266Z,973.52
2016-11-01T03:59:08.229Z,973.5
2016-11-01T04:00:08.190Z,973.5
2016-11-01T04:01:08.152Z,973.49
2016-11-01T04:02:08.117Z,973.44
2016-11-01T04:03:08.075Z,973.43
2016-11-01T04:04:08.038Z,973.4
2016-11-01T04:05:07.998Z,973.37
2016-11-01T04:06:07.960Z,973.38
2016-11-01T04:07:07.922Z,973.39
2016-11-01T04:08:07.883Z,973.38
2016-11-01T04:09:07.846Z,973.38
2016-11-01T04:10:07.807Z,973.38
2016-11-01T04:11:07.770Z,973.37
2016-11-01T04:12:07.729Z,973.36
2016-11-01T04:13:07.691Z,973.36
2016-11-01T04:14:07.654Z,973.35
2016-11-01T04:15:07.616Z,973.33
2016-11-01T04:16:07.577Z,973.37
2016-11-01T04:17:07.539Z,973.38
2016-11-01T04:18:07.501Z,973.4
2016-11-01T04:19:07.463Z,973.34
2016-11-01T04:20:07.424Z,973.37
2016-11-01T04:21:07.386Z,973.4
2016-11-01T04:22:07.347Z,973.39
2016-11-01T04:23:07.309Z,973.42
2016-11-01T04:24:07.273Z,973.37
2016-11-01T04:25:07.232Z,973.35
2016-11-01T04:26:07.194Z,973.35
2016-11-01T04:27:07.157Z,973.42
2016-11-01T04:28:07.118Z,973.36
2016-11-01T04:29:07.079Z,973.34
2016-11-01T04:30:07.043Z,973.3
2016-11-01T04:31:07.003Z,973.3
2016-11-01T04:32:06.964Z,973.31
2016-11-01T04:33:06.925Z,973.32
2016-11-01T04:34:06.887Z,973.31
2016-11-01T04:35:06.850Z,973.31
2016-11-01T04:36:06.811Z,973.29
2016-11-01T04:37:06.773Z,973.3
2016-11-01T04:38:06.733Z,973.24
2016-11-01T04:39:06.696Z,973.27
2016-11-01T04:40:06.657Z,973.23
2016-11-01T04:41:06.620Z,973.27
2016-11-01T04:42:06.582Z,973.25
2016-11-01T04:43:06.542Z,973.23
2016-11-01T04:44:06.505Z,973.26
2016-11-01T04:45:06.467Z,973.27
2016-11-01T04:46:06.428Z,973.23
2016-11-01T04:47:06.389Z,973.27
2016-11-01T04:48:06.353Z,973.24
2016-11-01T04:49:06.313Z,973.23
2016-11-01T04:50:06.275Z,973.18
2016-11-01T04:51:06.236Z,973.2
2016-11-01T04:52:06.199Z,973.22
2016-11-01T04:53:06.160Z,973.24
2016-11-01T04:54:06.123Z,973.23
2016-11-01T04:55:06.086Z,973.21
2016-11-01T04:56:06.045Z,973.22
2016-11-01T04:57:06.006Z,973.19
2016-11-01T04:58:05.969Z,973.17
2016-11-01T04:59:05.930Z,973.18
2016-11-01T05:00:05.896Z,973.18
2016-11-01T05:01:05.854Z,973.19
2016-11-01T05:02:05.815Z,973.13
2016-11-01T05:03:05.777Z,973.15
2016-11-01T05:04:05.737Z,973.14
2016-11-01T05:05:05.700Z,973.13
2016-11-01T05:06:05.662Z,973.12
2016-11-01T05:07:05.631Z,973.12
2016-11-01T05:08:05.586Z,973.14
2016-11-01T05:09:05.546Z,973.08
2016-11-01T05:10:05.509Z,973.11
2016-11-01T05:11:05.469Z,973.18
2016-11-01T05:12:05.431Z,973.13
2016-11-01T05:13:05.393Z,973.13
2016-11-01T05:14:05.354Z,973.09
2016-11-01T05:15:05.316Z,973.1
2016-11-01T05:16:05.279Z,973.13
2016-11-01T05:17:05.240Z,973.13
2016-11-01T05:18:05.201Z,973.12
2016-11-01T05:19:05.165Z,973.14
2016-11-01T05:20:05.125Z,973.1
2016-11-01T05:21:05.087Z,973.12
2016-11-01T05:22:05.047Z,973.11
2016-11-01T05:23:05.010Z,973.11
2016-11-01T05:24:04.972Z,973.08
2016-11-01T05:25:04.933Z,973.07
2016-11-01T05:26:04.894Z,973.08
2016-11-01T05:27:04.856Z,973.06
2016-11-01T05:28:04.816Z,973.04
2016-11-01T05:29:04.778Z,973.06
2016-11-01T05:30:04.739Z,973.01
2016-11-01T05:31:04.701Z,973.03
2016-11-01T05:32:04.664Z,973.03
2016-11-01T05:33:04.627Z,972.97
2016-11-01T05:34:04.584Z,972.99
2016-11-01T05:35:04.545Z,973.01
2016-11-01T05:36:04.508Z,973.02
2016-11-01T05:37:04.471Z,973.02
2016-11-01T05:38:04.432Z,972.97
2016-11-01T05:39:04.394Z,972.99
2016-11-01T05:40:04.354Z,972.98
2016-11-01T05:41:04.317Z,972.96
2016-11-01T05:42:04.278Z,972.94
2016-11-01T05:43:04.255Z,972.96
2016-11-01T05:44:04.202Z,972.93
2016-11-01T05:45:04.163Z,972.98
2016-11-01T05:46:04.124Z,972.99
2016-11-01T05:47:04.091Z,972.92
2016-11-01T05:48:04.047Z,972.95
2016-11-01T05:49:04.008Z,972.96
2016-11-01T05:50:03.970Z,972.92
2016-11-01T05:51:03.931Z,972.95
2016-11-01T05:52:03.892Z,972.98
2016-11-01T05:53:03.854Z,972.92
2016-11-01T05:54:03.815Z,972.95
2016-11-01T05:55:03.776Z,972.97
2016-11-01T05:56:03.739Z,972.95
2016-11-01T05:57:03.699Z,972.87
2016-11-01T05:58:03.660Z,972.9
2016-11-01T05:59:03.624Z,972.91
2016-11-01T06:00:03.584Z,972.95
2016-11-01T06:01:03.545Z,972.94
2016-11-01T06:02:03.507Z,972.95
2016-11-01T06:03:03.468Z,972.96
2016-11-01T06:04:03.429Z,972.93
2016-11-01T06:05:03.391Z,972.94
2016-11-01T06:06:03.352Z,972.91
2016-11-01T06:07:03.313Z,972.96
2016-11-01T06:08:03.275Z,972.97
2016-11-01T06:09:03.237Z,972.93
2016-11-01T06:10:03.198Z,972.98
2016-11-01T06:11:03.161Z,972.99
2016-11-01T06:12:03.123Z,972.97
2016-11-01T06:13:03.083Z,972.99
2016-11-01T06:14:03.044Z,972.98
2016-11-01T06:15:03.005Z,972.99
2016-11-01T06:16:02.968Z,973.06
2016-11-01T06:17:02.928Z,973.05
2016-11-01T06:18:02.889Z,973.01
2016-11-01T06:19:02.850Z,973.03
2016-11-01T06:20:02.811Z,973.06
2016-11-01T06:21:02.772Z,972.99
2016-11-01T06:22:02.735Z,973.01
2016-11-01T06:23:02.696Z,973.02
2016-11-01T06:24:02.656Z,973.04
2016-11-01T06:25:02.618Z,973.04
2016-11-01T06:26:02.579Z,973.02
2016-11-01T06:27:02.540Z,973.05
2016-11-01T06:28:02.501Z,973.03
2016-11-01T06:29:02.463Z,973.02
2016-11-01T06:30:02.425Z,972.98
2016-11-01T06:31:02.385Z,973.03
2016-11-01T06:32:02.347Z,973
2016-11-01T06:33:02.309Z,972.98
2016-11-01T06:34:02.271Z,973
2016-11-01T06:35:02.231Z,973.03
2016-11-01T06:36:02.193Z,972.98
2016-11-01T06:37:02.154Z,972.98
2016-11-01T06:38:02.116Z,972.97
2016-11-01T06:39:02.077Z,973.01
2016-11-01T06:40:02.038Z,973.01
2016-11-01T06:41:02.000Z,973.04
2016-11-01T06:42:01.963Z,973.08
2016-11-01T06:43:01.922Z,973.03
2016-11-01T06:44:01.884Z,973.01
2016-11-01T06:45:01.847Z,973.05
2016-11-01T06:46:01.806Z,973.08
2016-11-01T06:47:01.769Z,973.03
2016-11-01T06:48:01.729Z,973.05
2016-11-01T06:49:01.694Z,973.08
2016-11-01T06:50:01.652Z,973.08
2016-11-01T06:51:01.613Z,973.07
2016-11-01T06:52:01.576Z,973.04
2016-11-01T06:53:01.536Z,973.1
2016-11-01T06:54:01.498Z,973.13
2016-11-01T06:55:01.459Z,973.12
2016-11-01T06:56:01.421Z,973.11
2016-11-01T06:57:01.381Z,973.07
2016-11-01T06:58:01.344Z,973.09
2016-11-01T06:59:01.305Z,973.05
2016-11-01T07:00:01.267Z,973.09
2016-11-01T07:01:01.227Z,973
2016-11-01T07:02:01.190Z,973.05
2016-11-01T07:03:01.151Z,973.05
2016-11-01T07:04:01.111Z,973.04
2016-11-01T07:05:01.072Z,973
2016-11-01T07:06:01.036Z,972.99
2016-11-01T07:07:00.996Z,973.01
2016-11-01T07:08:00.959Z,973
2016-11-01T07:09:00.921Z,973.05
2016-11-01T07:10:00.883Z,973.03
2016-11-01T07:11:00.847Z,973
2016-11-01T07:12:00.806Z,973.01
2016-11-01T07:13:00.769Z,973.04
2016-11-01T07:14:00.732Z,973.05
2016-11-01T07:15:00.693Z,973.06
2016-11-01T07:16:00.656Z,973.03
2016-11-01T07:17:00.614Z,973.06
2016-11-01T07:18:00.580Z,973.06
2016-11-01T07:19:00.538Z,973.04
2016-11-01T07:20:00.500Z,973.04
2016-11-01T07:21:00.465Z,973.04
2016-11-01T07:22:00.424Z,973.05
2016-11-01T07:23:00.385Z,973.02
2016-11-01T07:24:00.348Z,973.03
2016-11-01T07:25:00.309Z,973.07
2016-11-01T07:26:00.269Z,973.07
2016-11-01T07:27:00.234Z,973.09
2016-11-01T07:28:00.195Z,973.09
2016-11-01T07:29:00.157Z,973.11
2016-11-01T07:30:00.120Z,973.09
2016-11-01T07:31:00.080Z,973.09
2016-11-01T07:32:00.044Z,973.08
2016-11-01T07:33:00.004Z,973.1
2016-11-01T07:33:59.967Z,973.12
2016-11-01T07:34:59.928Z,973.12
2016-11-01T07:35:59.891Z,973.11
2016-11-01T07:36:59.852Z,973.07
2016-11-01T07:37:59.813Z,973.12
2016-11-01T07:38:59.776Z,973.12
2016-11-01T07:39:59.739Z,973.13
2016-11-01T07:40:59.699Z,973.13
2016-11-01T07:41:59.662Z,973.07
2016-11-01T07:42:59.623Z,973.08
2016-11-01T07:43:59.585Z,973.08
2016-11-01T07:44:59.550Z,973.15
2016-11-01T07:45:59.510Z,973.11
2016-11-01T07:46:59.473Z,973.09
2016-11-01T07:47:59.435Z,973.15
2016-11-01T07:48:59.397Z,973.13
2016-11-01T07:49:59.361Z,973.13
2016-11-01T07:50:59.322Z,973.13
2016-11-01T07:51:59.284Z,973.16
2016-11-01T07:52:59.249Z,973.11
2016-11-01T07:53:59.210Z,973.08
2016-11-01T07:54:59.173Z,973.11
2016-11-01T07:55:59.136Z,973.09
2016-11-01T07:56:59.098Z,973.11
2016-11-01T07:57:59.060Z,973.11
2016-11-01T07:58:59.023Z,973.12
2016-11-01T07:59:58.984Z,973.16
2016-11-01T08:00:58.946Z,973.14
2016-11-01T08:01:58.909Z,973.16
2016-11-01T08:02:58.871Z,973.11
2016-11-01T08:03:58.833Z,973.16
2016-11-01T08:04:58.797Z,973.13
2016-11-01T08:05:58.758Z,973.18
2016-11-01T08:06:58.721Z,973.13
2016-11-01T08:07:58.685Z,973.15
2016-11-01T08:08:58.646Z,973.12
2016-11-01T08:09:58.609Z,973.11
2016-11-01T08:10:58.577Z,973.09
2016-11-01T08:11:58.534Z,973.1
2016-11-01T08:12:58.497Z,973.09
2016-11-01T08:13:58.459Z,973.07
2016-11-01T08:14:58.421Z,973.07
2016-11-01T08:15:58.384Z,972.99
2016-11-01T08:16:58.347Z,973.03
2016-11-01T08:17:58.310Z,973.02
2016-11-01T08:18:58.272Z,973.01
2016-11-01T08:19:58.236Z,973.05
2016-11-01T08:20:58.199Z,973.03
2016-11-01T08:21:58.170Z,972.99
2016-11-01T08:22:58.124Z,972.97
2016-11-01T08:23:58.087Z,972.93
2016-11-01T08:24:58.050Z,972.91
2016-11-01T08:25:58.012Z,972.87
2016-11-01T08:26:57.975Z,972.87
2016-11-01T08:27:57.937Z,972.91
2016-11-01T08:28:57.899Z,972.94
2016-11-01T08:29:57.861Z,972.95
2016-11-01T08:30:57.827Z,972.93
2016-11-01T08:31:57.788Z,972.94
2016-11-01T08:32:57.750Z,972.95
2016-11-01T08:33:57.714Z,972.97
2016-11-01T08:34:57.676Z,972.93
2016-11-01T08:35:57.638Z,972.95
2016-11-01T08:36:57.603Z,972.96
2016-11-01T08:37:57.564Z,972.92
2016-11-01T08:38:57.525Z,972.92
2016-11-01T08:39:57.489Z,972.89
2016-11-01T08:40:57.453Z,972.91
2016-11-01T08:41:57.414Z,972.96
2016-11-01T08:42:57.377Z,972.93
2016-11-01T08:43:57.339Z,972.95
2016-11-01T08:44:57.303Z,972.93
2016-11-01T08:45:57.265Z,972.91
2016-11-01T08:46:57.229Z,972.96
2016-11-01T08:47:57.190Z,972.98
2016-11-01T08:48:57.154Z,972.99
2016-11-01T08:49:57.115Z,973.02
2016-11-01T08:50:57.079Z,973
2016-11-01T08:51:57.041Z,972.98
2016-11-01T08:52:57.004Z,972.98
2016-11-01T08:53:56.966Z,972.98
2016-11-01T08:54:56.929Z,972.98
2016-11-01T08:55:56.892Z,972.96
2016-11-01T08:56:56.853Z,972.94
2016-11-01T08:57:56.816Z,972.92
2016-11-01T08:58:56.779Z,972.96
2016-11-01T08:59:56.743Z,972.93
2016-11-01T09:00:56.705Z,972.93
2016-11-01T09:01:56.666Z,972.9
2016-11-01T09:02:56.632Z,972.9
2016-11-01T09:03:56.593Z,972.95
2016-11-01T09:04:56.556Z,972.94
2016-11-01T09:05:56.519Z,972.96
2016-11-01T09:06:56.483Z,972.92
2016-11-01T09:07:56.444Z,972.96
2016-11-01T09:08:56.407Z,972.99
2016-11-01T09:09:56.372Z,972.97
2016-11-01T09:10:56.335Z,972.93
2016-11-01T09:11:56.295Z,972.95
2016-11-01T09:12:56.259Z,972.98
2016-11-01T09:13:56.221Z,972.98
2016-11-01T09:14:56.186Z,972.94
2016-11-01T09:15:56.148Z,972.98
2016-11-01T09:16:56.112Z,973
2016-11-01T09:17:56.073Z,972.95
2016-11-01T09:18:56.035Z,972.98
2016-11-01T09:19:56.001Z,972.94
2016-11-01T09:20:55.964Z,972.95
2016-11-01T09:21:55.927Z,972.93
2016-11-01T09:22:55.888Z,972.97
2016-11-01T09:23:55.852Z,972.94
2016-11-01T09:24:55.816Z,972.94
2016-11-01T09:25:55.779Z,972.91
2016-11-01T09:26:55.744Z,972.94
2016-11-01T09:27:55.706Z,972.92
2016-11-01T09:28:55.669Z,972.9
2016-11-01T09:29:55.633Z,972.88
2016-11-01T09:30:55.596Z,972.91
2016-11-01T09:31:55.562Z,972.88
2016-11-01T09:32:55.524Z,972.86
2016-11-01T09:33:55.486Z,972.85
2016-11-01T09:34:55.451Z,972.83
2016-11-01T09:35:55.414Z,972.85
2016-11-01T09:36:55.379Z,972.84
2016-11-01T09:37:55.342Z,972.83
2016-11-01T09:38:55.308Z,972.84
2016-11-01T09:39:55.277Z,972.84
2016-11-01T09:40:55.235Z,972.84
2016-11-01T09:41:55.199Z,972.83
2016-11-01T09:42:55.162Z,972.78
2016-11-01T09:43:55.127Z,972.8
2016-11-01T09:44:55.089Z,972.77
2016-11-01T09:45:55.055Z,972.79
2016-11-01T09:46:55.018Z,972.85
2016-11-01T09:47:54.984Z,972.79
2016-11-01T09:48:54.952Z,972.77
2016-11-01T09:49:54.910Z,972.79
2016-11-01T09:50:54.875Z,972.77
2016-11-01T09:51:54.838Z,972.8
2016-11-01T09:52:54.803Z,972.8
2016-11-01T09:53:54.770Z,972.78
2016-11-01T09:54:54.733Z,972.83
2016-11-01T09:55:54.695Z,972.77
2016-11-01T09:56:54.661Z,972.8
2016-11-01T09:57:54.625Z,972.8
2016-11-01T09:58:54.591Z,972.83
2016-11-01T09:59:54.555Z,972.88
2016-11-01T10:00:54.520Z,972.87
2016-11-01T10:01:54.484Z,972.87
2016-11-01T10:02:54.451Z,972.94
2016-11-01T10:03:54.413Z,972.88
2016-11-01T10:04:54.379Z,972.86
2016-11-01T10:05:54.343Z,972.85
2016-11-01T10:06:54.310Z,973.26
2016-11-01T10:07:54.276Z,973.25
2016-11-01T10:08:54.240Z,973.3
2016-11-01T10:09:54.206Z,973.32
2016-11-01T10:10:54.173Z,973.29
2016-11-01T10:11:54.138Z,972.88
2016-11-01T10:12:54.119Z,972.77
2016-11-01T10:13:54.072Z,972.78
2016-11-01T10:14:54.040Z,973.12
2016-11-01T10:15:54.007Z,972.78
2016-11-01T10:16:53.991Z,972.77
2016-11-01T10:17:53.943Z,972.79
2016-11-01T10:18:53.913Z,972.93
2016-11-01T10:19:53.882Z,973.1
2016-11-01T10:20:53.862Z,973.02
2016-11-01T10:21:53.817Z,973.01
2016-11-01T10:22:53.794Z,972.9
2016-11-01T10:23:53.758Z,972.85
2016-11-01T10:24:53.724Z,972.83
2016-11-01T10:25:53.695Z,972.98
2016-11-01T10:26:53.665Z,972.87
2016-11-01T10:27:53.633Z,972.93
2016-11-01T10:28:53.605Z,972.91
2016-11-01T10:29:53.573Z,972.93
2016-11-01T10:30:53.543Z,972.86
2016-11-01T10:31:53.513Z,972.87
2016-11-01T10:32:53.492Z,972.85
2016-11-01T10:33:53.454Z,972.83
2016-11-01T10:34:53.427Z,972.83
2016-11-01T10:35:53.395Z,972.77
2016-11-01T10:36:53.368Z,972.72
2016-11-01T10:37:53.341Z,972.79
2016-11-01T10:38:53.310Z,972.82
2016-11-01T10:39:53.283Z,972.94
2016-11-01T10:40:53.253Z,972.79
2016-11-01T10:41:53.227Z,972.69
2016-11-01T10:42:53.200Z,972.76
2016-11-01T10:43:53.171Z,972.65
2016-11-01T10:44:53.143Z,972.66
2016-11-01T10:45:53.117Z,972.69
2016-11-01T10:46:53.089Z,972.7
2016-11-01T10:47:53.064Z,972.7
2016-11-01T10:48:53.035Z,972.55
2016-11-01T10:49:53.008Z,972.81
2016-11-01T10:50:52.982Z,972.78
2016-11-01T10:51:52.953Z,973.06
2016-11-01T10:52:52.927Z,972.99
2016-11-01T10:53:52.900Z,972.81
2016-11-01T10:54:52.879Z,972.38
2016-11-01T10:55:52.847Z,972.41
2016-11-01T10:56:52.821Z,972.39
2016-11-01T10:57:52.794Z,972.32
2016-11-01T10:58:52.767Z,972.33
2016-11-01T10:59:52.740Z,972.36
2016-11-01T11:00:52.714Z,972.36
2016-11-01T11:01:52.688Z,972.39
2016-11-01T11:02:52.661Z,972.37
2016-11-01T11:03:52.633Z,972.42
2016-11-01T11:04:52.608Z,972.24
2016-11-01T11:05:52.580Z,972.17
2016-11-01T11:06:52.553Z,972.21
2016-11-01T11:07:52.526Z,972.22
2016-11-01T11:08:52.497Z,972.2
2016-11-01T11:09:52.472Z,972.25
2016-11-01T11:10:52.443Z,972.35
2016-11-01T11:11:52.418Z,972.29
2016-11-01T11:12:52.390Z,972.22
2016-11-01T11:13:52.362Z,972.4
2016-11-01T11:14:52.335Z,972.35
2016-11-01T11:15:52.306Z,972.07
2016-11-01T11:16:52.279Z,972.02
2016-11-01T11:17:52.251Z,971.95
2016-11-01T11:18:52.224Z,971.9
2016-11-01T11:19:52.194Z,971.91
2016-11-01T11:20:52.168Z,971.88
2016-11-01T11:21:52.140Z,971.87
2016-11-01T11:22:52.112Z,971.84
2016-11-01T11:23:52.084Z,971.85
2016-11-01T11:24:52.057Z,971.83
2016-11-01T11:25:52.028Z,971.77
2016-11-01T11:26:51.998Z,971.79
2016-11-01T11:27:51.970Z,971.76
2016-11-01T11:28:51.941Z,971.72
2016-11-01T11:29:51.912Z,971.73
2016-11-01T11:30:51.882Z,971.69
2016-11-01T11:31:51.855Z,971.7
2016-11-01T11:32:51.827Z,971.67
2016-11-01T11:33:51.794Z,971.64
2016-11-01T11:34:51.773Z,971.63
2016-11-01T11:35:51.735Z,971.58
2016-11-01T11:36:51.707Z,971.57
2016-11-01T11:37:51.675Z,971.55
2016-11-01T11:38:51.644Z,971.53
2016-11-01T11:39:51.613Z,971.53
2016-11-01T11:40:51.590Z,971.53
2016-11-01T11:41:51.556Z,971.57
2016-11-01T11:42:51.523Z,971.54
2016-11-01T11:43:51.493Z,971.52
2016-11-01T11:44:51.463Z,971.51
2016-11-01T11:45:51.430Z,971.47
2016-11-01T11:46:51.399Z,971.45
2016-11-01T11:47:51.368Z,971.45
2016-11-01T11:48:51.335Z,971.44
2016-11-01T11:49:51.304Z,971.41
2016-11-01T11:50:51.274Z,971.39
2016-11-01T11:51:51.244Z,971.37
2016-11-01T11:52:51.210Z,971.32
2016-11-01T11:53:51.178Z,971.31
2016-11-01T11:54:51.147Z,971.28
2016-11-01T11:55:51.115Z,971.26
2016-11-01T11:56:51.083Z,971.22
2016-11-01T11:57:51.050Z,971.2
2016-11-01T11:58:51.017Z,971.2
2016-11-01T11:59:50.986Z,971.17
2016-11-01T12:00:50.954Z,971.21
2016-11-01T12:01:50.922Z,971.2
2016-11-01T12:02:50.889Z,971.18
2016-11-01T12:03:50.856Z,971.15
2016-11-01T12:04:50.825Z,971.14
2016-11-01T12:05:50.791Z,971.1
2016-11-01T12:06:50.757Z,971.06
2016-11-01T12:07:50.724Z,971.02
2016-11-01T12:08:50.692Z,970.97
2016-11-01T12:09:50.660Z,970.94
2016-11-01T12:10:50.626Z,971.02
2016-11-01T12:11:50.591Z,970.96
2016-11-01T12:12:50.560Z,970.95
2016-11-01T12:13:50.524Z,970.97
2016-11-01T12:14:50.492Z,970.93
2016-11-01T12:15:50.457Z,970.97
2016-11-01T12:16:50.426Z,970.97
2016-11-01T12:17:50.390Z,970.94
2016-11-01T12:18:50.356Z,970.95
2016-11-01T12:19:50.323Z,970.9
2016-11-01T12:20:50.290Z,970.88
2016-11-01T12:21:50.255Z,970.84
2016-11-01T12:22:50.220Z,970.84
2016-11-01T12:23:50.189Z,970.88
2016-11-01T12:24:50.153Z,970.83
2016-11-01T12:25:50.119Z,970.82
2016-11-01T12:26:50.085Z,970.81
2016-11-01T12:27:50.053Z,970.75
2016-11-01T12:28:50.017Z,970.78
2016-11-01T12:29:49.983Z,970.7
2016-11-01T12:30:49.948Z,970.72